Time;durP1;ratioP1;P1;durP2;ratioP2;P2;SDS_P1;SDS_P2;PMS_P1;PMS_P2;Temp;Humidity;BMP_temperature;BMP_pressure;BME280_temperature;BME280_humidity;BME280_pressure;Samples;Min_cycle;Max_cycle;Signal;HPM_P1;HPM_P2
2022/03/01 00:02:19;;;;;;;5.00;3.83;;;;;;;;;;7332675;19;162539;-15
2022/03/01 00:04:50;;;;;;;4.57;3.88;;;;;;;;;;7331824;19;154326;-15
2022/03/01 00:07:22;;;;;;;3.50;3.20;;;;;;;;;;7330057;19;153709;-14
2022/03/01 00:09:53;;;;;;;3.80;3.33;;;;;;;;;;7331415;19;162477;-14
2022/03/01 00:12:24;;;;;;;3.80;3.33;;;;;;;;;;7331375;19;162534;-14
2022/03/01 00:14:58;;;;;;;4.05;3.58;;;;;;;;;;7332163;19;154220;-14
2022/03/01 00:17:30;;;;;;;5.78;3.58;;;;;;;;;;7334088;19;153582;-14
2022/03/01 00:20:01;;;;;;;4.00;3.40;;;;;;;;;;7334197;19;161952;-14
2022/03/01 00:22:33;;;;;;;4.75;3.15;;;;;;;;;;7333750;19;162677;-15
2022/03/01 00:25:06;;;;;;;4.33;3.60;;;;;;;;;;7334731;19;154020;-14
2022/03/01 00:27:37;;;;;;;4.28;3.17;;;;;;;;;;7330806;19;153592;-14
2022/03/01 00:30:13;;;;;;;4.30;3.47;;;;;;;;;;7331688;19;161838;-15
2022/03/01 00:32:46;;;;;;;5.32;3.45;;;;;;;;;;7331877;19;162405;-14
2022/03/01 00:35:17;;;;;;;3.88;3.13;;;;;;;;;;7333513;19;153990;-14
2022/03/01 00:37:48;;;;;;;3.95;3.55;;;;;;;;;;7333767;19;153504;-15
2022/03/01 00:40:19;;;;;;;3.97;3.22;;;;;;;;;;7333145;19;161780;-14
2022/03/01 00:42:51;;;;;;;4.60;3.17;;;;;;;;;;7333095;19;162377;-14
2022/03/01 00:45:25;;;;;;;3.58;3.28;;;;;;;;;;7328720;19;154310;-14
2022/03/01 00:47:57;;;;;;;5.40;3.78;;;;;;;;;;7326244;19;154267;-22
2022/03/01 00:50:28;;;;;;;4.30;3.60;;;;;;;;;;7327605;19;161863;-14
2022/03/01 00:52:59;;;;;;;4.18;3.60;;;;;;;;;;7329011;19;162373;-15
2022/03/01 00:55:31;;;;;;;3.58;3.25;;;;;;;;;;7330587;19;153959;-14
2022/03/01 00:58:02;;;;;;;4.13;3.72;;;;;;;;;;7329051;19;154092;-15
2022/03/01 10:18:57;;;;;;;7.88;5.95;;;;;;;;;;7370731;19;132486;-15
2022/03/01 10:21:30;;;;;;;7.10;6.40;;;;;;;;;;7364830;19;153473;-15
2022/03/01 10:24:01;;;;;;;9.63;6.27;;;;;;;;;;7368284;19;161961;-15
2022/03/01 10:26:36;;;;;;;8.52;7.07;;;;;;;;;;7363936;19;162376;-14
2022/03/01 10:29:17;;;;;;;8.45;6.72;;;;;;;;;;7364864;19;154280;-15
2022/03/01 10:31:51;;;;;;;7.40;6.25;;;;;;;;;;7366348;19;153538;-13
2022/03/01 10:34:24;;;;;;;7.65;6.45;;;;;;;;;;7364027;19;161820;-13
2022/03/01 10:36:56;;;;;;;7.80;6.60;;;;;;;;;;7363762;19;162347;-13
2022/03/01 10:39:30;;;;;;;6.95;6.00;;;;;;;;;;7368475;19;154007;-15
2022/03/01 10:42:01;;;;;;;7.35;6.22;;;;;;;;;;7363615;19;153663;-26
2022/03/01 10:44:33;;;;;;;9.27;6.50;;;;;;;;;;7366896;19;162189;-14
2022/03/01 10:47:06;;;;;;;8.13;6.40;;;;;;;;;;7362456;19;162633;-16
2022/03/01 10:49:40;;;;;;;6.57;5.97;;;;;;;;;;7365876;19;153967;-13
2022/03/01 10:52:14;;;;;;;6.72;5.65;;;;;;;;;;7362340;19;153458;-13
2022/03/01 10:54:46;;;;;;;6.75;5.88;;;;;;;;;;7367246;19;162018;-14
2022/03/01 10:57:24;;;;;;;7.23;5.80;;;;;;;;;;7363146;19;162717;-13
2022/03/01 10:59:55;;;;;;;9.75;6.20;;;;;;;;;;7367201;19;154061;-14
2022/03/01 11:02:27;;;;;;;7.05;6.10;;;;;;;;;;7363527;19;153637;-14
2022/03/01 11:05:01;;;;;;;6.75;5.68;;;;;;;;;;7363075;19;161809;-14
2022/03/01 11:07:32;;;;;;;6.75;5.65;;;;;;;;;;7362517;19;162844;-15
2022/03/01 11:10:06;;;;;;;9.38;5.25;;;;;;;;;;7363427;19;154030;-17
2022/03/01 11:12:39;;;;;;;6.70;6.00;;;;;;;;;;7362582;19;153579;-14
2022/03/01 11:15:21;;;;;;;7.95;5.95;;;;;;;;;;7362805;19;161758;-14
2022/03/01 11:17:58;;;;;;;6.57;5.32;;;;;;;;;;7357010;19;162567;-14
2022/03/01 11:20:40;;;;;;;7.10;5.57;;;;;;;;;;7337544;19;154009;-12
2022/03/01 11:23:14;;;;;;;6.35;5.28;;;;;;;;;;7335842;19;153555;-13
2022/03/01 11:25:47;;;;;;;6.15;5.32;;;;;;;;;;7333635;19;161768;-14
2022/03/01 11:28:19;;;;;;;;;;;;;;;;;;7330955;19;162544;-16
2022/03/01 11:30:51;;;;;;;8.73;5.25;;;;;;;;;;7338345;19;154326;-14
2022/03/01 11:33:35;;;;;;;6.85;5.43;;;;;;;;;;7335398;19;153716;-15
2022/03/01 11:36:08;;;;;;;;;;;;;;;;;;7335454;19;161816;-14
2022/03/01 11:38:45;;;;;;;6.93;5.18;;;;;;;;;;7337173;19;162457;-15
2022/03/01 11:41:20;;;;;;;8.25;6.05;;;;;;;;;;7333994;19;154038;-14
2022/03/01 11:43:59;;;;;;;5.68;4.88;;;;;;;;;;7336126;19;153525;-15
2022/03/01 11:46:42;;;;;;;5.40;4.80;;;;;;;;;;7334695;19;161941;-15
2022/03/01 11:49:15;;;;;;;5.63;4.53;;;;;;;;;;7332168;19;162512;-15
2022/03/01 11:51:52;;;;;;;5.32;4.82;;;;;;;;;;7335720;19;154058;-15
2022/03/01 11:54:26;;;;;;;7.22;5.50;;;;;;;;;;7331235;19;153478;-14
2022/03/01 11:56:59;;;;;;;5.80;5.10;;;;;;;;;;7335996;19;161830;-14
2022/03/01 11:59:31;;;;;;;5.82;5.22;;;;;;;;;;7336420;19;162265;-14
2022/03/01 12:02:20;;;;;;;5.70;4.60;;;;;;;;;;7336567;19;153889;-14
2022/03/01 12:04:55;;;;;;;6.13;5.15;;;;;;;;;;7337290;19;153481;-14
2022/03/01 12:07:31;;;;;;;5.57;4.97;;;;;;;;;;7333232;19;162288;-14
2022/03/01 12:10:05;;;;;;;4.97;4.47;;;;;;;;;;7336218;19;163061;-15
2022/03/01 12:12:39;;;;;;;6.18;4.90;;;;;;;;;;7332458;19;153970;-13
2022/03/01 12:15:12;;;;;;;5.90;5.30;;;;;;;;;;7334969;19;153573;-13
2022/03/01 12:17:46;;;;;;;5.78;4.78;;;;;;;;;;7334130;19;162277;-13
2022/03/01 12:20:19;;;;;;;5.93;5.05;;;;;;;;;;7335234;19;162850;-14
2022/03/01 12:22:58;;;;;;;4.63;3.90;;;;;;;;;;7336673;19;153950;-15
2022/03/01 12:25:34;;;;;;;5.85;4.75;;;;;;;;;;7335614;19;153642;-14
2022/03/01 12:28:08;;;;;;;5.38;4.88;;;;;;;;;;7335491;19;162367;-15
2022/03/01 12:30:44;;;;;;;5.65;4.80;;;;;;;;;;7333298;19;162575;-14
2022/03/01 12:33:17;;;;;;;4.90;4.38;;;;;;;;;;7334706;19;153910;-15
2022/03/01 12:36:03;;;;;;;5.35;4.85;;;;;;;;;;7335781;19;153674;-15
2022/03/01 12:38:39;;;;;;;5.35;4.50;;;;;;;;;;7335159;19;161856;-14
2022/03/01 12:41:12;;;;;;;5.20;4.70;;;;;;;;;;7333542;19;162356;-14
2022/03/01 12:43:43;;;;;;;5.18;4.65;;;;;;;;;;7334020;19;154222;-13
2022/03/01 12:46:15;;;;;;;8.60;5.93;;;;;;;;;;7335814;19;153479;-15
2022/03/01 12:48:48;;;;;;;7.53;5.07;;;;;;;;;;7334117;19;161766;-15
2022/03/01 12:51:19;;;;;;;6.60;5.07;;;;;;;;;;7332675;19;162361;-14
2022/03/01 12:54:00;;;;;;;5.88;4.82;;;;;;;;;;7334791;19;154205;-13
2022/03/01 12:56:33;;;;;;;5.63;4.90;;;;;;;;;;7335584;19;153582;-14
2022/03/01 12:59:08;;;;;;;7.80;5.13;;;;;;;;;;7331673;19;161763;-14
2022/03/01 13:01:42;;;;;;;5.70;4.47;;;;;;;;;;7335990;19;162578;-14
2022/03/01 13:04:13;;;;;;;5.78;4.82;;;;;;;;;;7334823;19;153961;-14
2022/03/01 13:06:45;;;;;;;9.50;5.93;;;;;;;;;;7335786;19;153610;-14
2022/03/01 13:09:19;;;;;;;8.90;5.78;;;;;;;;;;7333381;19;161835;-15
2022/03/01 13:11:51;;;;;;;9.20;5.60;;;;;;;;;;7333836;19;162734;-15
2022/03/01 13:14:27;;;;;;;7.53;5.45;;;;;;;;;;7335342;19;154171;-14
2022/03/01 13:17:02;;;;;;;6.97;4.90;;;;;;;;;;7331148;19;153473;-13
2022/03/01 13:19:35;;;;;;;8.07;5.18;;;;;;;;;;7334761;19;162065;-22
2022/03/01 13:22:10;;;;;;;7.90;4.72;;;;;;;;;;7333834;19;162317;-15
2022/03/01 13:24:47;;;;;;;5.95;4.55;;;;;;;;;;7334997;19;154217;-14
2022/03/01 13:27:22;;;;;;;10.90;5.20;;;;;;;;;;7332213;19;153670;-14
2022/03/01 13:29:53;;;;;;;4.45;4.05;;;;;;;;;;7330825;19;162231;-15
2022/03/01 13:32:26;;;;;;;6.18;4.75;;;;;;;;;;7332596;19;162469;-14
2022/03/01 13:35:04;;;;;;;;;;;;;;;;;;7332299;19;154168;-13
2022/03/01 13:37:36;;;;;;;8.60;4.93;;;;;;;;;;7332301;19;153334;-14
2022/03/01 13:40:12;;;;;;;6.07;4.57;;;;;;;;;;7333145;19;162076;-14
2022/03/01 13:42:45;;;;;;;5.88;4.13;;;;;;;;;;7332814;19;162529;-13
2022/03/01 13:45:16;;;;;;;6.55;4.65;;;;;;;;;;7331375;19;154106;-13
2022/03/01 13:47:47;;;;;;;10.13;4.60;;;;;;;;;;7332271;19;153527;-13
2022/03/01 13:50:21;;;;;;;5.70;4.65;;;;;;;;;;7330664;19;161938;-15
2022/03/01 13:52:56;;;;;;;5.80;4.88;;;;;;;;;;7333257;19;162544;-14
2022/03/01 13:55:30;;;;;;;5.10;4.60;;;;;;;;;;7331778;19;153897;-14
2022/03/01 13:58:01;;;;;;;6.50;4.57;;;;;;;;;;7331964;19;153630;-14
2022/03/01 14:00:36;;;;;;;6.13;4.70;;;;;;;;;;7333514;19;161637;-15
2022/03/01 14:03:12;;;;;;;7.03;4.78;;;;;;;;;;7331372;19;162605;-15
2022/03/01 14:05:45;;;;;;;8.85;4.97;;;;;;;;;;7328090;19;154148;-26
2022/03/01 14:08:18;;;;;;;4.75;4.35;;;;;;;;;;7284772;19;153544;-14
2022/03/01 14:11:54;;;;;;;6.57;5.18;;;;;;;;;;7273031;19;134102;-14
2022/03/01 14:14:26;;;;;;;11.82;4.97;;;;;;;;;;7367960;19;153519;-15
2022/03/01 14:16:57;;;;;;;6.22;4.93;;;;;;;;;;7331666;19;162106;-14
2022/03/01 14:19:29;;;;;;;7.95;4.60;;;;;;;;;;7363298;19;162400;-14
2022/03/01 14:22:00;;;;;;;6.10;4.55;;;;;;;;;;7357967;19;154036;-15
2022/03/01 14:24:32;;;;;;;6.22;4.53;;;;;;;;;;7358096;19;153624;-14
2022/03/01 14:27:06;;;;;;;5.90;4.60;;;;;;;;;;7359273;19;162645;-14
2022/03/01 14:29:40;;;;;;;7.47;4.97;;;;;;;;;;7356966;19;162604;-14
2022/03/01 14:32:12;;;;;;;6.55;4.95;;;;;;;;;;7358734;19;154344;-14
2022/03/01 14:34:47;;;;;;;5.65;4.70;;;;;;;;;;7359506;19;153636;-15
2022/03/01 14:37:20;;;;;;;6.32;4.30;;;;;;;;;;7357928;19;161979;-13
2022/03/01 14:39:51;;;;;;;5.78;4.18;;;;;;;;;;7350838;19;162630;-14
2022/03/01 14:42:25;;;;;;;6.55;4.95;;;;;;;;;;7355430;19;155038;-14
2022/03/01 14:44:57;;;;;;;5.50;4.53;;;;;;;;;;7355753;19;154131;-14
2022/03/01 14:47:29;;;;;;;8.18;4.25;;;;;;;;;;7353747;19;162070;-15
2022/03/01 14:50:00;;;;;;;5.47;4.43;;;;;;;;;;7354859;19;162504;-14
2022/03/01 14:52:32;;;;;;;5.43;4.63;;;;;;;;;;7354449;19;153994;-14
2022/03/01 14:55:03;;;;;;;5.35;4.50;;;;;;;;;;7355592;19;153597;-14
2022/03/01 14:57:37;;;;;;;4.43;3.92;;;;;;;;;;7353694;19;162937;-14
2022/03/01 15:00:12;;;;;;;4.53;4.10;;;;;;;;;;7358716;19;162427;-14
2022/03/01 15:02:45;;;;;;;4.82;3.72;;;;;;;;;;7366318;19;154071;-14
2022/03/01 15:05:16;;;;;;;;;;;;;;;;;;7365737;19;153696;-14
2022/03/01 15:07:48;;;;;;;7.50;4.40;;;;;;;;;;7363700;19;161984;-14
2022/03/01 15:10:21;;;;;;;6.10;3.90;;;;;;;;;;7358015;19;163394;-14
2022/03/01 15:12:55;;;;;;;6.82;4.72;;;;;;;;;;7353479;19;155948;-14
2022/03/01 15:15:26;;;;;;;5.32;4.00;;;;;;;;;;7353746;19;153671;-15
2022/03/01 15:17:59;;;;;;;6.75;4.95;;;;;;;;;;7354271;19;161913;-14
2022/03/01 15:20:30;;;;;;;6.65;4.65;;;;;;;;;;7353566;19;162439;-14
2022/03/01 15:23:01;;;;;;;4.00;3.60;;;;;;;;;;7321514;19;153919;-14
2022/03/01 15:25:33;;;;;;;4.95;3.70;;;;;;;;;;7324378;19;153643;-15
2022/03/01 15:28:07;;;;;;;4.78;3.95;;;;;;;;;;7322792;19;162437;-14
2022/03/01 15:30:39;;;;;;;4.95;3.70;;;;;;;;;;7323748;19;162376;-14
2022/03/01 15:33:11;;;;;;;4.67;3.80;;;;;;;;;;7323261;19;153956;-16
2022/03/01 15:35:42;;;;;;;4.35;3.95;;;;;;;;;;7322339;19;155256;-14
2022/03/01 15:38:14;;;;;;;4.45;3.92;;;;;;;;;;7323791;19;161821;-15
2022/03/01 15:40:46;;;;;;;4.68;4.15;;;;;;;;;;7322761;19;162509;-14
2022/03/01 15:43:20;;;;;;;4.35;3.95;;;;;;;;;;7323575;19;154168;-16
2022/03/01 15:45:52;;;;;;;4.72;4.07;;;;;;;;;;7321601;19;153567;-13
2022/03/01 15:48:25;;;;;;;4.17;3.80;;;;;;;;;;7322364;19;161866;-14
2022/03/01 15:50:57;;;;;;;6.72;4.13;;;;;;;;;;7332040;19;162362;-14
2022/03/01 15:53:28;;;;;;;4.55;3.78;;;;;;;;;;7333433;19;153914;-14
2022/03/01 15:56:00;;;;;;;6.03;4.03;;;;;;;;;;7336200;19;153555;-14
2022/03/01 15:58:34;;;;;;;4.47;4.07;;;;;;;;;;7335151;19;161908;-13
2022/03/01 16:01:06;;;;;;;4.20;3.58;;;;;;;;;;7333941;19;162626;-14
2022/03/01 16:03:37;;;;;;;5.55;4.72;;;;;;;;;;7336306;19;153924;-14
2022/03/01 16:06:09;;;;;;;4.45;4.05;;;;;;;;;;7335799;19;153590;-14
2022/03/01 16:08:40;;;;;;;5.28;3.72;;;;;;;;;;7333326;19;162185;-14
2022/03/01 16:11:11;;;;;;;5.65;4.30;;;;;;;;;;7333083;19;162344;-15
2022/03/01 16:13:45;;;;;;;5.25;4.10;;;;;;;;;;7335432;19;154543;-14
2022/03/01 16:16:17;;;;;;;5.63;3.80;;;;;;;;;;7336949;19;153538;-14
2022/03/01 16:18:50;;;;;;;4.25;3.63;;;;;;;;;;7336877;19;162511;-14
2022/03/01 16:21:22;;;;;;;4.45;4.00;;;;;;;;;;7335027;19;162443;-14
2022/03/01 16:23:53;;;;;;;5.75;4.05;;;;;;;;;;7334026;19;154007;-14
2022/03/01 16:26:25;;;;;;;4.55;3.63;;;;;;;;;;7335112;19;153485;-14
2022/03/01 16:28:59;;;;;;;4.28;3.88;;;;;;;;;;7335004;19;162444;-14
2022/03/01 16:31:30;;;;;;;5.22;3.92;;;;;;;;;;7334123;19;164639;-14
2022/03/01 16:34:01;;;;;;;3.90;3.50;;;;;;;;;;7333258;19;154103;-15
2022/03/01 16:36:32;;;;;;;4.22;3.72;;;;;;;;;;7334425;19;153714;-16
2022/03/01 16:39:06;;;;;;;;;;;;;;;;;;7334147;19;161775;-15
2022/03/01 16:41:38;;;;;;;4.05;3.65;;;;;;;;;;7334635;19;162522;-16
2022/03/01 16:44:13;;;;;;;3.50;3.10;;;;;;;;;;7335203;19;153945;-15
2022/03/01 16:46:44;;;;;;;3.60;3.20;;;;;;;;;;7334975;19;153530;-15
2022/03/01 16:49:16;;;;;;;4.20;3.38;;;;;;;;;;7334855;19;162157;-15
2022/03/01 16:51:47;;;;;;;4.35;3.70;;;;;;;;;;7334041;19;162509;-15
2022/03/01 16:54:19;;;;;;;4.43;3.90;;;;;;;;;;7329845;19;154275;-16
2022/03/01 16:56:52;;;;;;;4.03;3.63;;;;;;;;;;7334022;19;153914;-15
2022/03/01 16:59:26;;;;;;;5.03;3.40;;;;;;;;;;7333230;19;162093;-16
2022/03/01 17:01:57;;;;;;;4.32;3.53;;;;;;;;;;7333915;19;162456;-15
2022/03/01 17:04:28;;;;;;;4.00;3.60;;;;;;;;;;7332608;19;153935;-15
2022/03/01 17:07:00;;;;;;;3.83;3.30;;;;;;;;;;7334273;19;153528;-16
2022/03/01 17:09:31;;;;;;;3.65;3.35;;;;;;;;;;7332137;19;161811;-16
2022/03/01 17:12:03;;;;;;;4.18;3.30;;;;;;;;;;7332886;19;162449;-15
2022/03/01 17:14:37;;;;;;;4.68;3.83;;;;;;;;;;7331406;19;154229;-15
2022/03/01 17:17:11;;;;;;;6.35;3.53;;;;;;;;;;7332217;19;153524;-15
2022/03/01 17:19:43;;;;;;;3.78;3.47;;;;;;;;;;7330489;19;161974;-15
2022/03/01 17:22:14;;;;;;;4.15;3.58;;;;;;;;;;7332114;19;162650;-15
2022/03/01 17:24:47;;;;;;;4.25;3.85;;;;;;;;;;7333196;19;154083;-15
2022/03/01 17:27:19;;;;;;;4.82;3.60;;;;;;;;;;7333006;19;153642;-15
2022/03/01 17:29:53;;;;;;;4.72;3.58;;;;;;;;;;7332393;19;161995;-15
2022/03/01 17:32:27;;;;;;;4.05;3.63;;;;;;;;;;7329750;19;162352;-15
2022/03/01 17:34:59;;;;;;;3.92;3.38;;;;;;;;;;7332168;19;154048;-14
2022/03/01 17:37:30;;;;;;;4.50;3.28;;;;;;;;;;7334144;19;153528;-15
2022/03/01 17:40:03;;;;;;;4.07;3.38;;;;;;;;;;7332960;19;162124;-16
2022/03/01 17:42:34;;;;;;;3.83;3.50;;;;;;;;;;7331912;19;162539;-15
2022/03/01 17:45:09;;;;;;;3.20;2.83;;;;;;;;;;7333555;19;153743;-16
2022/03/01 17:47:41;;;;;;;4.35;3.72;;;;;;;;;;7333457;19;153531;-15
2022/03/01 17:50:17;;;;;;;4.25;3.83;;;;;;;;;;7332063;19;162129;-15
2022/03/01 17:52:48;;;;;;;4.45;3.67;;;;;;;;;;7331213;19;162344;-14
2022/03/01 17:55:20;;;;;;;4.90;3.70;;;;;;;;;;7332310;19;154089;-15
2022/03/01 17:57:52;;;;;;;9.55;4.25;;;;;;;;;;7332192;19;153562;-15
2022/03/01 18:00:29;;;;;;;7.13;4.10;;;;;;;;;;7332959;19;161751;-15
2022/03/01 18:03:01;;;;;;;8.85;3.38;;;;;;;;;;7324193;19;162904;-15
2022/03/01 18:05:33;;;;;;;5.93;3.67;;;;;;;;;;7332690;19;153949;-14
2022/03/01 18:08:05;;;;;;;3.70;3.40;;;;;;;;;;7332813;19;153652;-15
2022/03/01 18:10:36;;;;;;;4.72;3.53;;;;;;;;;;7330683;19;162142;-15
2022/03/01 18:13:08;;;;;;;4.80;3.58;;;;;;;;;;7330865;19;162483;-15
2022/03/01 18:15:42;;;;;;;3.70;3.40;;;;;;;;;;7331557;19;154142;-15
2022/03/01 18:18:15;;;;;;;3.45;3.15;;;;;;;;;;7331844;19;153535;-15
2022/03/01 18:20:46;;;;;;;6.53;3.78;;;;;;;;;;7331562;19;161765;-15
2022/03/01 18:23:18;;;;;;;4.10;3.50;;;;;;;;;;7332008;19;162638;-15
2022/03/01 18:25:53;;;;;;;3.45;3.15;;;;;;;;;;7332437;19;154059;-15
2022/03/01 18:28:26;;;;;;;3.47;3.10;;;;;;;;;;7332071;19;153663;-15
2022/03/01 18:31:05;;;;;;;5.45;3.70;;;;;;;;;;7330723;19;161921;-16
2022/03/01 18:33:38;;;;;;;3.67;2.95;;;;;;;;;;7330074;19;162507;-15
2022/03/01 18:36:09;;;;;;;4.90;3.60;;;;;;;;;;7331948;19;154068;-15
2022/03/01 18:38:48;;;;;;;3.60;3.30;;;;;;;;;;7332158;19;153452;-15
2022/03/01 18:41:19;;;;;;;5.78;3.85;;;;;;;;;;7330935;19;161852;-15
2022/03/01 18:43:52;;;;;;;3.85;3.28;;;;;;;;;;7329616;19;162405;-15
2022/03/01 18:46:26;;;;;;;5.80;3.10;;;;;;;;;;7330505;19;154151;-14
2022/03/01 18:48:57;;;;;;;3.88;3.55;;;;;;;;;;7331224;19;153843;-15
2022/03/01 18:51:29;;;;;;;4.47;3.47;;;;;;;;;;7328438;19;162134;-15
2022/03/01 18:54:03;;;;;;;3.40;3.08;;;;;;;;;;7328883;19;162403;-14
2022/03/01 18:56:37;;;;;;;3.70;3.40;;;;;;;;;;7333055;19;154144;-14
2022/03/01 18:59:09;;;;;;;3.78;3.42;;;;;;;;;;7336114;19;154260;-15
2022/03/01 19:01:43;;;;;;;3.97;3.33;;;;;;;;;;7336328;19;161762;-15
2022/03/01 19:04:20;;;;;;;4.03;3.15;;;;;;;;;;7337905;19;162347;-15
2022/03/01 19:06:56;;;;;;;3.75;3.25;;;;;;;;;;7334617;19;153795;-15
2022/03/01 19:09:29;;;;;;;3.42;3.13;;;;;;;;;;7335262;19;153552;-15
2022/03/01 19:12:01;;;;;;;3.58;3.17;;;;;;;;;;7336217;19;161828;-14
2022/03/01 19:14:33;;;;;;;3.87;3.47;;;;;;;;;;7335612;19;162661;-15
2022/03/01 19:17:08;;;;;;;4.07;3.67;;;;;;;;;;7335944;19;154325;-14
2022/03/01 19:19:39;;;;;;;8.63;5.22;;;;;;;;;;7336659;19;153606;-15
2022/03/01 19:22:10;;;;;;;7.90;5.15;;;;;;;;;;7337544;19;161813;-16
2022/03/01 19:24:42;;;;;;;8.13;7.40;;;;;;;;;;7338575;19;162350;-15
2022/03/01 19:27:16;;;;;;;8.15;6.75;;;;;;;;;;7333759;19;154257;-15
2022/03/01 19:29:49;;;;;;;10.40;6.80;;;;;;;;;;7337328;19;153636;-15
2022/03/01 19:32:26;;;;;;;9.60;6.47;;;;;;;;;;7337241;19;161978;-15
2022/03/01 19:34:59;;;;;;;10.48;5.43;;;;;;;;;;7333017;19;162374;-15
2022/03/01 19:37:31;;;;;;;;;;;;;;;;;;7336497;19;154302;-16
2022/03/01 19:40:03;;;;;;;12.77;8.57;;;;;;;;;;7337312;19;153686;-16
2022/03/01 19:42:39;;;;;;;9.15;8.25;;;;;;;;;;7336416;19;161902;-16
2022/03/01 19:45:15;;;;;;;8.40;6.97;;;;;;;;;;7333325;19;162602;-15
2022/03/01 19:47:51;;;;;;;6.63;5.85;;;;;;;;;;7334915;19;153944;-16
2022/03/01 19:50:29;;;;;;;8.07;6.15;;;;;;;;;;7336841;19;153773;-15
2022/03/01 19:53:03;;;;;;;8.13;5.57;;;;;;;;;;7333541;19;161919;-15
2022/03/01 19:55:35;;;;;;;6.50;5.60;;;;;;;;;;7332982;19;162381;-15
2022/03/01 19:58:07;;;;;;;10.43;8.23;;;;;;;;;;7336990;19;154122;-15
2022/03/01 20:00:39;;;;;;;9.60;8.77;;;;;;;;;;7337615;19;153551;-15
2022/03/01 20:03:17;;;;;;;9.32;8.30;;;;;;;;;;7336173;19;161680;-15
2022/03/01 20:05:50;;;;;;;8.88;7.10;;;;;;;;;;7334580;19;162589;-15
2022/03/01 20:08:21;;;;;;;;;;;;;;;;;;7335944;19;154409;-15
2022/03/01 20:10:52;;;;;;;8.25;6.63;;;;;;;;;;7334279;19;153305;-15
2022/03/01 20:13:24;;;;;;;7.50;6.80;;;;;;;;;;7335830;19;161795;-15
2022/03/01 20:15:56;;;;;;;6.95;6.22;;;;;;;;;;7335556;19;162362;-14
2022/03/01 20:18:30;;;;;;;5.95;5.45;;;;;;;;;;7334981;19;154088;-27
2022/03/01 20:21:01;;;;;;;6.65;5.45;;;;;;;;;;7335340;19;153629;-15
2022/03/01 20:23:34;;;;;;;8.27;6.40;;;;;;;;;;7334924;19;162149;-15
2022/03/01 20:26:06;;;;;;;7.10;5.87;;;;;;;;;;7335205;19;162519;-15
2022/03/01 20:28:38;;;;;;;6.22;5.55;;;;;;;;;;7335557;19;154089;-15
2022/03/01 20:31:11;;;;;;;6.15;5.40;;;;;;;;;;7334474;19;153714;-14
2022/03/01 20:33:48;;;;;;;7.65;4.95;;;;;;;;;;7334406;19;161861;-18
2022/03/01 20:36:23;;;;;;;10.50;6.30;;;;;;;;;;7334177;19;163431;-14
2022/03/01 20:38:55;;;;;;;5.75;5.22;;;;;;;;;;7335752;19;153979;-14
2022/03/01 20:41:26;;;;;;;8.18;5.63;;;;;;;;;;7335083;19;153685;-14
2022/03/01 20:44:01;;;;;;;6.78;5.93;;;;;;;;;;7334521;19;162010;-14
2022/03/01 20:46:32;;;;;;;6.47;5.10;;;;;;;;;;7332815;19;162365;-14
2022/03/01 20:49:09;;;;;;;5.30;4.80;;;;;;;;;;7334696;19;154013;-14
2022/03/01 20:51:41;;;;;;;6.25;5.07;;;;;;;;;;7335087;19;153505;-15
2022/03/01 20:54:13;;;;;;;6.55;5.95;;;;;;;;;;7333038;19;161850;-14
2022/03/01 20:56:44;;;;;;;7.93;5.25;;;;;;;;;;7334412;19;162588;-14
2022/03/01 20:59:17;;;;;;;5.13;4.60;;;;;;;;;;7332040;19;154219;-15
2022/03/01 21:01:50;;;;;;;4.88;4.43;;;;;;;;;;7334955;19;153573;-13
2022/03/01 21:04:24;;;;;;;6.32;4.35;;;;;;;;;;7334069;19;162115;-14
2022/03/01 21:06:56;;;;;;;6.28;5.45;;;;;;;;;;7333487;19;162407;-14
2022/03/01 21:09:27;;;;;;;5.38;4.10;;;;;;;;;;7333991;19;154579;-14
2022/03/01 21:12:00;;;;;;;5.60;5.05;;;;;;;;;;7333320;19;153762;-14
2022/03/01 21:14:32;;;;;;;5.00;4.47;;;;;;;;;;7334527;19;162365;-14
2022/03/01 21:17:03;;;;;;;5.70;4.82;;;;;;;;;;7334045;19;162447;-15
2022/03/01 21:19:38;;;;;;;6.70;4.72;;;;;;;;;;7331799;19;154008;-14
2022/03/01 21:22:09;;;;;;;5.15;4.32;;;;;;;;;;7334464;19;153728;-15
2022/03/01 21:24:41;;;;;;;6.10;4.05;;;;;;;;;;7333146;19;161853;-14
2022/03/01 21:27:13;;;;;;;5.25;4.75;;;;;;;;;;7333266;19;162363;-14
2022/03/01 21:29:44;;;;;;;5.88;4.68;;;;;;;;;;7334510;19;154197;-14
2022/03/01 21:32:17;;;;;;;4.60;4.18;;;;;;;;;;7333107;19;153509;-15
2022/03/01 21:34:51;;;;;;;5.37;4.70;;;;;;;;;;7332866;19;162048;-14
2022/03/01 21:37:22;;;;;;;5.88;4.10;;;;;;;;;;7333499;19;162273;-15
2022/03/01 21:39:54;;;;;;;5.28;4.78;;;;;;;;;;7333310;19;154169;-14
2022/03/01 21:42:26;;;;;;;5.40;4.90;;;;;;;;;;7332833;19;153626;-14
2022/03/01 21:44:57;;;;;;;5.07;4.57;;;;;;;;;;7330973;19;161833;-14
2022/03/01 21:47:29;;;;;;;5.50;3.67;;;;;;;;;;7332234;19;162908;-14
2022/03/01 21:50:03;;;;;;;5.63;4.40;;;;;;;;;;7332650;19;154022;-14
2022/03/01 21:52:35;;;;;;;4.32;3.83;;;;;;;;;;7332512;19;153922;-14
2022/03/01 21:55:10;;;;;;;5.43;4.22;;;;;;;;;;7331439;19;161956;-14
2022/03/01 21:57:41;;;;;;;4.57;4.18;;;;;;;;;;7332669;19;162729;-14
2022/03/01 22:00:16;;;;;;;4.22;3.83;;;;;;;;;;7330507;19;153990;-15
2022/03/01 22:02:47;;;;;;;4.90;4.40;;;;;;;;;;7330122;19;153569;-14
2022/03/01 22:05:23;;;;;;;4.20;3.80;;;;;;;;;;7331153;19;161792;-14
2022/03/01 22:07:55;;;;;;;4.88;3.90;;;;;;;;;;7330250;19;162726;-15
2022/03/01 22:10:26;;;;;;;3.95;3.60;;;;;;;;;;7330905;19;154065;-15
2022/03/01 22:12:57;;;;;;;4.50;4.03;;;;;;;;;;7331940;19;153538;-14
2022/03/01 22:15:29;;;;;;;5.70;3.70;;;;;;;;;;7328673;19;161787;-14
2022/03/01 22:18:00;;;;;;;5.03;4.40;;;;;;;;;;7329264;19;162687;-14
2022/03/01 22:20:35;;;;;;;3.97;3.65;;;;;;;;;;7331229;19;153972;-14
2022/03/01 22:23:06;;;;;;;5.47;3.78;;;;;;;;;;7331623;19;153542;-15
2022/03/01 22:25:42;;;;;;;4.93;4.40;;;;;;;;;;7328400;19;161913;-15
2022/03/01 22:28:14;;;;;;;4.00;3.63;;;;;;;;;;7329607;19;162943;-15
2022/03/01 22:30:45;;;;;;;4.55;3.92;;;;;;;;;;7331859;19;154129;-14
2022/03/01 22:33:17;;;;;;;4.50;3.80;;;;;;;;;;7334964;19;154929;-14
2022/03/01 22:35:51;;;;;;;7.28;4.80;;;;;;;;;;7337005;19;161804;-14
2022/03/01 22:38:22;;;;;;;4.68;4.15;;;;;;;;;;7334342;19;162642;-13
2022/03/01 22:40:53;;;;;;;5.35;3.97;;;;;;;;;;7334961;19;153999;-14
2022/03/01 22:43:25;;;;;;;4.90;4.05;;;;;;;;;;7334774;19;153625;-14
2022/03/01 22:45:57;;;;;;;4.18;3.05;;;;;;;;;;7337886;19;161991;-15
2022/03/01 22:48:29;;;;;;;5.30;3.28;;;;;;;;;;7338206;19;162374;-14
2022/03/01 22:51:03;;;;;;;4.10;3.70;;;;;;;;;;7338318;19;154122;-13
2022/03/01 22:53:35;;;;;;;4.18;3.65;;;;;;;;;;7338280;19;153538;-15
2022/03/01 22:56:07;;;;;;;3.78;3.40;;;;;;;;;;7337092;19;161797;-14
2022/03/01 22:58:41;;;;;;;3.80;3.50;;;;;;;;;;7337944;19;162326;-15
2022/03/01 23:01:24;;;;;;;4.40;3.30;;;;;;;;;;7337941;19;153975;-15
2022/03/01 23:03:58;;;;;;;3.90;3.30;;;;;;;;;;7334059;19;153978;-15
2022/03/01 23:06:33;;;;;;;4.68;3.67;;;;;;;;;;7337127;19;161660;-14
2022/03/01 23:09:05;;;;;;;3.78;3.45;;;;;;;;;;7334131;19;162376;-16
2022/03/01 23:11:37;;;;;;;3.78;3.30;;;;;;;;;;7332792;19;154094;-14
2022/03/01 23:14:08;;;;;;;3.83;3.53;;;;;;;;;;7334883;19;153542;-15
2022/03/01 23:16:39;;;;;;;4.72;3.10;;;;;;;;;;7335417;19;161940;-15
2022/03/01 23:19:11;;;;;;;4.53;2.95;;;;;;;;;;7330896;19;162907;-14
2022/03/01 23:21:45;;;;;;;3.40;3.10;;;;;;;;;;7338278;19;154138;-15
2022/03/01 23:24:16;;;;;;;3.80;3.40;;;;;;;;;;7333927;19;153868;-14
2022/03/01 23:26:47;;;;;;;4.18;3.75;;;;;;;;;;7334610;19;162029;-14
2022/03/01 23:29:19;;;;;;;4.05;3.47;;;;;;;;;;7333833;19;162459;-15
2022/03/01 23:31:50;;;;;;;3.88;3.47;;;;;;;;;;7333075;19;154133;-14
2022/03/01 23:34:21;;;;;;;4.97;3.30;;;;;;;;;;7333763;19;153375;-15
2022/03/01 23:36:55;;;;;;;3.80;3.40;;;;;;;;;;7331481;19;161876;-15
2022/03/01 23:39:27;;;;;;;3.28;2.97;;;;;;;;;;7335457;19;162392;-17
2022/03/01 23:41:58;;;;;;;3.28;2.97;;;;;;;;;;7333155;19;154078;-15
2022/03/01 23:44:29;;;;;;;3.92;3.53;;;;;;;;;;7334802;19;153805;-14
2022/03/01 23:47:01;;;;;;;3.50;3.20;;;;;;;;;;7329914;19;161808;-14
2022/03/01 23:49:32;;;;;;;4.40;3.10;;;;;;;;;;7334621;19;162475;-15
2022/03/01 23:52:07;;;;;;;2.83;2.60;;;;;;;;;;7330960;19;154005;-14
2022/03/01 23:54:39;;;;;;;3.40;2.88;;;;;;;;;;7329302;19;153708;-15
2022/03/01 23:57:10;;;;;;;4.55;3.10;;;;;;;;;;7332142;19;162072;-14
2022/03/01 23:59:42;;;;;;;3.92;3.58;;;;;;;;;;7336466;19;162376;-15
